createdAt,value
2023-03-12T00:02:21.565Z,0.05
2023-03-12T00:04:48.612Z,-0.03
2023-03-12T00:07:15.404Z,-0.15
2023-03-12T00:09:42.214Z,-0.15
2023-03-12T00:12:09.159Z,-0.16
2023-03-12T00:14:36.712Z,-0.14
2023-03-12T00:17:03.631Z,-0.15
2023-03-12T00:19:30.492Z,-0.17
2023-03-12T00:21:57.285Z,-0.16
2023-03-12T00:24:24.341Z,-0.19
2023-03-12T00:26:51.021Z,-0.09
2023-03-12T00:29:17.712Z,-0.01
2023-03-12T00:31:44.571Z,-0.05
2023-03-12T00:34:11.700Z,-0.04
2023-03-12T00:36:40.418Z,-0.12
2023-03-12T00:39:07.688Z,-0.14
2023-03-12T00:41:34.596Z,-0.13
2023-03-12T00:44:01.408Z,-0.05
2023-03-12T00:46:28.172Z,-0.02
2023-03-12T00:48:54.897Z,-0.03
2023-03-12T00:51:21.699Z,0.02
2023-03-12T00:53:48.500Z,0.00
2023-03-12T00:56:15.700Z,0.00
2023-03-12T00:58:43.397Z,0.06
2023-03-12T01:01:10.781Z,-0.04
2023-03-12T01:03:38.050Z,-0.08
2023-03-12T01:06:05.764Z,-0.12
2023-03-12T01:08:32.725Z,-0.25
2023-03-12T01:10:59.656Z,-0.41
2023-03-12T01:13:26.695Z,-0.43
2023-03-12T01:15:53.441Z,-0.39
2023-03-12T01:18:20.181Z,-0.42
2023-03-12T01:20:47.464Z,-0.40
2023-03-12T01:23:14.610Z,-0.46
2023-03-12T01:25:41.878Z,-0.47
2023-03-12T01:28:08.683Z,-0.39
2023-03-12T01:30:35.492Z,-0.41
2023-03-12T01:33:02.215Z,-0.41
2023-03-12T01:35:28.993Z,-0.46
2023-03-12T01:37:56.333Z,-0.47
2023-03-12T01:40:29.130Z,-0.45
2023-03-12T01:42:57.439Z,-0.46
2023-03-12T01:46:01.281Z,-0.51
2023-03-12T01:48:32.544Z,-0.56
2023-03-12T01:51:00.019Z,-0.57
2023-03-12T01:53:27.020Z,-0.48
2023-03-12T01:55:53.790Z,-0.44
2023-03-12T01:58:20.565Z,-0.52
2023-03-12T02:00:47.351Z,-0.54
2023-03-12T02:03:15.814Z,-0.57
2023-03-12T02:05:49.192Z,-0.58
2023-03-12T02:08:17.020Z,-0.61
2023-03-12T02:10:43.930Z,-0.61
2023-03-12T02:13:11.501Z,-0.62
2023-03-12T02:15:39.315Z,-0.74
2023-03-12T02:18:08.222Z,-0.87
2023-03-12T02:20:53.559Z,-0.96
2023-03-12T02:23:36.537Z,-0.95
2023-03-12T02:26:05.261Z,-1.16
2023-03-12T02:28:34.516Z,-1.04
2023-03-12T02:31:04.170Z,-1.23
2023-03-12T02:33:30.876Z,-1.19
2023-03-12T02:35:57.863Z,-1.13
2023-03-12T02:38:49.650Z,-1.21
2023-03-12T02:41:28.564Z,-1.13
2023-03-12T02:44:05.472Z,-1.17
2023-03-12T02:46:52.874Z,-1.20
2023-03-12T02:49:21.489Z,-1.17
2023-03-12T02:51:48.710Z,-1.23
2023-03-12T02:54:17.094Z,-1.26
2023-03-12T02:56:44.029Z,-1.25
2023-03-12T02:59:11.615Z,-1.21
2023-03-12T03:01:38.558Z,-1.33
2023-03-12T03:04:06.892Z,-1.44
2023-03-12T03:06:35.062Z,-1.34
2023-03-12T03:09:02.146Z,-1.40
2023-03-12T03:11:28.879Z,-1.32
2023-03-12T03:13:56.155Z,-1.29
2023-03-12T03:16:23.130Z,-1.32
2023-03-12T03:18:50.044Z,-1.47
2023-03-12T03:21:17.265Z,-1.43
2023-03-12T03:23:48.398Z,-1.48
2023-03-12T03:26:16.209Z,-1.37
2023-03-12T03:28:46.095Z,-1.40
2023-03-12T03:31:13.016Z,-1.31
2023-03-12T03:33:40.236Z,-1.30
2023-03-12T03:36:08.359Z,-1.25
2023-03-12T03:38:35.773Z,-1.44
2023-03-12T03:41:03.090Z,-1.60
2023-03-12T03:43:29.816Z,-1.46
2023-03-12T03:45:58.221Z,-1.43
2023-03-12T03:48:25.218Z,-1.44
2023-03-12T03:50:52.148Z,-1.47
2023-03-12T03:53:20.134Z,-1.46
2023-03-12T03:55:47.160Z,-1.39
2023-03-12T03:58:14.088Z,-1.42
2023-03-12T04:00:41.099Z,-1.50
2023-03-12T04:03:07.903Z,-1.45
2023-03-12T04:05:34.924Z,-1.44
2023-03-12T04:08:03.342Z,-1.43
2023-03-12T04:10:30.636Z,-1.52
2023-03-12T04:12:57.614Z,-1.60
2023-03-12T04:15:24.679Z,-1.67
2023-03-12T04:17:51.541Z,-1.58
2023-03-12T04:20:18.513Z,-1.63
2023-03-12T04:22:45.277Z,-1.71
2023-03-12T04:25:12.135Z,-1.80
2023-03-12T04:27:38.856Z,-1.74
2023-03-12T04:30:06.046Z,-1.81
2023-03-12T04:32:32.979Z,-1.99
2023-03-12T04:34:59.701Z,-2.03
2023-03-12T04:37:26.594Z,-1.99
2023-03-12T04:39:53.347Z,-1.99
2023-03-12T04:42:20.168Z,-1.85
2023-03-12T04:44:46.933Z,-1.83
2023-03-12T04:47:13.679Z,-1.82
2023-03-12T04:49:40.482Z,-1.82
2023-03-12T04:52:07.400Z,-1.84
2023-03-12T04:54:34.372Z,-2.05
2023-03-12T04:57:01.104Z,-2.00
2023-03-12T04:59:27.903Z,-2.02
2023-03-12T05:01:54.703Z,-1.95
2023-03-12T05:04:21.577Z,-1.97
2023-03-12T05:06:48.334Z,-2.00
2023-03-12T05:09:15.122Z,-2.04
2023-03-12T05:11:41.891Z,-2.00
2023-03-12T05:14:10.693Z,-2.04
2023-03-12T05:16:37.547Z,-2.06
2023-03-12T05:19:05.163Z,-2.21
2023-03-12T05:21:31.958Z,-2.07
2023-03-12T05:23:59.213Z,-2.03
2023-03-12T05:26:28.580Z,-2.04
2023-03-12T05:28:55.168Z,-1.94
2023-03-12T05:31:21.935Z,-1.89
2023-03-12T05:33:51.558Z,-2.02
2023-03-12T05:36:19.301Z,-1.98
2023-03-12T05:38:46.178Z,-1.96
2023-03-12T05:41:25.113Z,-1.87
2023-03-12T05:43:56.378Z,-1.84
2023-03-12T05:46:24.251Z,-1.80
2023-03-12T05:48:50.929Z,-1.81
2023-03-12T05:51:17.768Z,-1.84
2023-03-12T05:53:44.552Z,-1.78
2023-03-12T05:56:13.302Z,-1.28
2023-03-12T05:58:40.727Z,1.40
2023-03-12T06:01:16.360Z,3.53
2023-03-12T06:03:43.254Z,5.08
2023-03-12T06:06:10.498Z,6.66
2023-03-12T06:08:37.174Z,4.97
2023-03-12T06:11:03.910Z,6.03
2023-03-12T06:13:30.614Z,8.29
2023-03-12T06:16:06.758Z,5.26
2023-03-12T06:18:33.962Z,3.49
2023-03-12T06:21:15.961Z,2.59
2023-03-12T06:23:43.094Z,2.23
2023-03-12T06:26:10.303Z,1.97
2023-03-12T06:28:36.940Z,1.94
2023-03-12T06:31:04.044Z,2.11
2023-03-12T06:33:31.159Z,2.19
2023-03-12T06:35:59.500Z,1.86
2023-03-12T06:38:26.818Z,1.94
2023-03-12T06:41:01.124Z,2.19
2023-03-12T06:43:29.390Z,2.43
2023-03-12T06:45:57.775Z,2.61
2023-03-12T06:48:25.393Z,2.58
2023-03-12T06:50:52.071Z,3.02
2023-03-12T06:53:19.700Z,3.15
2023-03-12T06:55:46.889Z,3.26
2023-03-12T06:58:13.518Z,3.71
2023-03-12T07:00:40.161Z,3.58
2023-03-12T07:03:07.122Z,3.32
2023-03-12T07:05:33.964Z,3.06
2023-03-12T07:08:00.575Z,2.00
2023-03-12T07:10:29.505Z,2.12
2023-03-12T07:12:57.051Z,2.56
2023-03-12T07:15:24.012Z,2.77
2023-03-12T07:17:50.678Z,3.42
2023-03-12T07:20:17.809Z,2.85
2023-03-12T07:22:44.969Z,3.05
2023-03-12T07:25:12.297Z,3.01
2023-03-12T07:27:39.012Z,3.42
2023-03-12T07:30:06.322Z,2.83
2023-03-12T07:32:33.605Z,2.50
2023-03-12T07:35:00.662Z,2.51
2023-03-12T07:37:27.339Z,2.61
2023-03-12T07:39:54.806Z,2.56
2023-03-12T07:42:22.040Z,2.68
2023-03-12T07:44:48.870Z,2.42
2023-03-12T07:47:23.699Z,2.53
2023-03-12T07:49:51.271Z,2.39
2023-03-12T07:52:20.183Z,2.44
2023-03-12T07:54:47.761Z,2.66
2023-03-12T07:57:14.714Z,2.40
2023-03-12T07:59:41.607Z,2.09
2023-03-12T08:02:10.714Z,2.23
2023-03-12T08:04:37.504Z,2.42
2023-03-12T08:07:06.270Z,2.41
2023-03-12T08:09:34.950Z,2.36
2023-03-12T08:12:01.774Z,2.29
2023-03-12T08:14:31.762Z,2.28
2023-03-12T08:16:58.900Z,2.27
2023-03-12T08:19:26.330Z,2.37
2023-03-12T08:21:53.578Z,2.28
2023-03-12T08:24:21.472Z,2.21
2023-03-12T08:26:48.482Z,2.27
2023-03-12T08:29:16.295Z,2.18
2023-03-12T08:31:57.551Z,2.27
2023-03-12T08:34:29.884Z,2.41
2023-03-12T08:36:56.667Z,2.51
2023-03-12T08:39:23.370Z,2.37
2023-03-12T08:41:50.052Z,2.63
2023-03-12T08:44:16.733Z,2.53
2023-03-12T08:46:43.372Z,2.47
2023-03-12T08:49:09.972Z,2.54
2023-03-12T08:51:36.703Z,2.47
2023-03-12T08:54:03.406Z,2.54
2023-03-12T08:56:30.068Z,2.69
2023-03-12T08:58:58.420Z,2.80
2023-03-12T09:01:25.225Z,2.72
2023-03-12T09:03:54.554Z,2.93
2023-03-12T09:06:21.627Z,2.93
2023-03-12T09:08:49.297Z,2.93
2023-03-12T09:11:16.261Z,2.92
2023-03-12T09:14:08.214Z,3.23
2023-03-12T09:16:29.986Z,3.03
2023-03-12T09:18:56.847Z,2.75
2023-03-12T09:21:23.486Z,2.90
2023-03-12T09:23:50.246Z,3.15
2023-03-12T09:26:16.931Z,3.28
2023-03-12T09:28:45.007Z,3.51
2023-03-12T09:31:12.560Z,3.50
2023-03-12T09:33:39.304Z,3.55
2023-03-12T09:36:06.373Z,3.82
2023-03-12T09:38:35.510Z,3.76
2023-03-12T09:41:05.592Z,4.16
2023-03-12T09:43:45.964Z,4.16
2023-03-12T09:46:33.540Z,4.13
2023-03-12T09:49:02.455Z,4.11
2023-03-12T09:51:39.462Z,4.09
2023-03-12T09:54:08.441Z,4.00
2023-03-12T09:56:35.194Z,4.06
2023-03-12T09:59:02.128Z,4.08
2023-03-12T10:01:51.973Z,4.10
2023-03-12T10:04:52.304Z,4.12
2023-03-12T10:07:23.784Z,4.40
2023-03-12T10:10:21.467Z,4.64
2023-03-12T10:13:13.815Z,4.58
2023-03-12T10:16:17.018Z,4.72
2023-03-12T10:19:05.942Z,4.60
2023-03-12T10:21:38.474Z,4.68
2023-03-12T10:24:13.144Z,4.74
2023-03-12T10:26:43.031Z,4.67
2023-03-12T10:29:26.545Z,4.75
2023-03-12T10:31:53.247Z,4.96
2023-03-12T10:34:37.971Z,5.14
2023-03-12T10:37:38.984Z,5.23
2023-03-12T10:40:06.143Z,5.48
2023-03-12T10:42:33.349Z,5.57
2023-03-12T10:45:26.244Z,5.44
2023-03-12T10:47:57.456Z,5.28
2023-03-12T10:50:27.162Z,5.39
2023-03-12T10:53:13.322Z,5.49
2023-03-12T10:55:40.147Z,5.07
2023-03-12T10:58:06.918Z,5.42
2023-03-12T11:00:33.761Z,5.52
2023-03-12T11:03:05.831Z,5.54
2023-03-12T11:05:38.013Z,5.38
2023-03-12T11:08:10.553Z,5.63
2023-03-12T11:10:45.705Z,5.56
2023-03-12T11:13:27.929Z,5.34
2023-03-12T11:15:56.014Z,5.29
2023-03-12T11:18:28.873Z,5.12
2023-03-12T11:21:16.130Z,5.07
2023-03-12T11:23:48.422Z,4.94
2023-03-12T11:26:17.353Z,5.04
2023-03-12T11:28:49.790Z,5.10
2023-03-12T11:31:23.868Z,5.14
2023-03-12T11:33:52.554Z,4.99
2023-03-12T11:37:00.352Z,4.99
2023-03-12T11:39:44.161Z,5.15
2023-03-12T11:42:16.688Z,4.88
2023-03-12T11:44:53.291Z,5.00
2023-03-12T11:47:35.655Z,5.06
2023-03-12T11:50:39.296Z,5.02
2023-03-12T11:53:47.991Z,5.38
2023-03-12T11:56:25.181Z,5.17
2023-03-12T11:59:42.741Z,4.96
2023-03-12T12:02:32.507Z,4.82
2023-03-12T12:05:13.823Z,4.63
2023-03-12T12:07:58.721Z,4.41
2023-03-12T12:10:52.034Z,4.15
2023-03-12T12:13:37.136Z,4.22
2023-03-12T12:16:29.744Z,4.26
2023-03-12T12:19:25.741Z,3.75
2023-03-12T12:22:01.100Z,4.00
2023-03-12T12:24:27.842Z,4.24
2023-03-12T12:27:21.394Z,3.81
2023-03-12T12:30:00.212Z,3.95
2023-03-12T12:32:58.833Z,4.00
2023-03-12T12:35:40.434Z,3.82
2023-03-12T12:38:10.125Z,3.74
2023-03-12T12:40:42.975Z,3.51
2023-03-12T12:43:20.836Z,3.83
2023-03-12T12:45:49.825Z,3.94
2023-03-12T12:48:42.024Z,3.91
2023-03-12T12:51:10.721Z,3.76
2023-03-12T12:53:49.703Z,3.94
2023-03-12T12:56:33.682Z,4.01
2023-03-12T12:59:25.362Z,4.18
2023-03-12T13:01:56.276Z,4.24
2023-03-12T13:04:35.404Z,3.96
2023-03-12T13:07:27.170Z,3.48
2023-03-12T13:09:56.640Z,3.79
2023-03-12T13:12:49.269Z,3.89
2023-03-12T13:15:28.252Z,3.80
2023-03-12T13:18:13.519Z,3.95
2023-03-12T13:20:52.241Z,4.00
2023-03-12T13:23:35.076Z,3.73
2023-03-12T13:26:11.779Z,3.85
2023-03-12T13:29:11.849Z,3.87
2023-03-12T13:31:41.004Z,4.12
2023-03-12T13:34:20.100Z,4.07
2023-03-12T13:36:48.414Z,3.97
2023-03-12T13:39:35.552Z,3.72
2023-03-12T13:42:24.972Z,3.72
2023-03-12T13:44:52.666Z,3.62
2023-03-12T13:47:37.897Z,3.42
2023-03-12T13:50:07.519Z,3.63
2023-03-12T13:52:42.220Z,3.28
2023-03-12T13:55:17.541Z,3.45
2023-03-12T13:57:50.070Z,3.61
2023-03-12T14:00:25.860Z,3.79
2023-03-12T14:03:18.078Z,3.46
2023-03-12T14:05:52.536Z,3.60
2023-03-12T14:08:31.313Z,3.68
2023-03-12T14:11:23.898Z,3.87
2023-03-12T14:13:59.691Z,3.80
2023-03-12T14:16:47.297Z,3.79
2023-03-12T14:19:15.186Z,3.63
2023-03-12T14:21:44.118Z,3.80
2023-03-12T14:24:34.830Z,3.69
2023-03-12T14:27:03.174Z,3.90
2023-03-12T14:29:36.583Z,3.87
2023-03-12T14:32:06.297Z,4.04
2023-03-12T14:34:45.990Z,3.96
2023-03-12T14:37:36.113Z,3.74
2023-03-12T14:40:09.146Z,3.81
2023-03-12T14:42:36.515Z,3.78
2023-03-12T14:45:06.269Z,3.88
2023-03-12T14:47:46.694Z,3.93
2023-03-12T14:50:22.588Z,3.87
2023-03-12T14:52:49.339Z,3.89
2023-03-12T14:55:21.041Z,3.87
2023-03-12T14:57:47.809Z,3.55
2023-03-12T15:00:33.337Z,3.46
2023-03-12T15:03:04.488Z,3.34
2023-03-12T15:05:31.327Z,3.38
2023-03-12T15:08:02.877Z,3.38
2023-03-12T15:10:31.128Z,3.20
2023-03-12T15:13:03.176Z,3.26
2023-03-12T15:15:36.162Z,3.45
2023-03-12T15:18:23.246Z,3.64
2023-03-12T15:20:50.673Z,3.63
2023-03-12T15:23:18.811Z,3.60
2023-03-12T15:25:46.059Z,3.47
2023-03-12T15:28:16.898Z,3.57
2023-03-12T15:30:44.210Z,3.53
2023-03-12T15:33:13.870Z,3.55
2023-03-12T15:35:43.864Z,3.48
2023-03-12T15:38:15.569Z,3.56
2023-03-12T15:40:48.668Z,3.52
2023-03-12T15:43:20.974Z,3.39
2023-03-12T15:45:48.685Z,3.39
2023-03-12T15:48:32.217Z,3.52
2023-03-12T15:50:59.368Z,3.49
2023-03-12T15:53:34.041Z,3.47
2023-03-12T15:56:07.729Z,3.41
2023-03-12T15:58:37.075Z,3.46
2023-03-12T16:01:08.397Z,3.29
2023-03-12T16:03:35.431Z,3.14
2023-03-12T16:06:02.406Z,3.19
2023-03-12T16:08:37.019Z,3.16
2023-03-12T16:11:03.998Z,3.06
2023-03-12T16:13:31.568Z,3.13
2023-03-12T16:15:59.247Z,3.07
2023-03-12T16:18:26.075Z,3.03
2023-03-12T16:20:53.401Z,3.04
2023-03-12T16:23:20.238Z,3.10
2023-03-12T16:25:52.226Z,3.08
2023-03-12T16:28:19.997Z,3.00
2023-03-12T16:30:46.887Z,3.05
2023-03-12T16:33:15.394Z,3.08
2023-03-12T16:35:42.258Z,3.03
2023-03-12T16:38:09.026Z,3.02
2023-03-12T16:40:38.710Z,3.01
2023-03-12T16:43:07.756Z,3.01
2023-03-12T16:45:36.330Z,3.13
2023-03-12T16:48:05.695Z,3.12
2023-03-12T16:50:32.592Z,3.03
2023-03-12T16:52:59.766Z,3.07
2023-03-12T16:55:29.041Z,3.16
2023-03-12T16:57:59.245Z,3.16
2023-03-12T17:00:29.792Z,3.15
2023-03-12T17:02:58.117Z,3.12
2023-03-12T17:05:26.255Z,3.06
2023-03-12T17:07:53.472Z,3.09
2023-03-12T17:10:20.743Z,3.08
2023-03-12T17:12:48.483Z,2.91
2023-03-12T17:15:20.452Z,2.94
2023-03-12T17:17:47.815Z,2.96
2023-03-12T17:20:16.445Z,3.00
2023-03-12T17:22:43.276Z,3.05
2023-03-12T17:25:28.091Z,3.01
2023-03-12T17:27:56.547Z,3.00
2023-03-12T17:30:24.107Z,3.02
2023-03-12T17:32:51.536Z,3.05
2023-03-12T17:35:19.151Z,3.05
2023-03-12T17:37:48.491Z,2.89
2023-03-12T17:40:15.926Z,2.96
2023-03-12T17:42:42.896Z,2.85
2023-03-12T17:45:10.131Z,2.92
2023-03-12T17:47:37.464Z,3.01
2023-03-12T17:50:05.740Z,3.01
2023-03-12T17:52:33.233Z,3.00
2023-03-12T17:55:00.661Z,3.06
2023-03-12T17:57:28.251Z,3.03
2023-03-12T17:59:54.870Z,3.00
2023-03-12T18:02:21.527Z,3.08
2023-03-12T18:04:48.536Z,2.89
2023-03-12T18:07:15.403Z,2.81
2023-03-12T18:09:42.178Z,2.84
2023-03-12T18:12:09.619Z,2.75
2023-03-12T18:14:36.452Z,2.77
2023-03-12T18:17:03.275Z,2.81
2023-03-12T18:19:30.746Z,2.83
2023-03-12T18:21:57.504Z,2.86
2023-03-12T18:24:24.176Z,2.75
2023-03-12T18:26:52.270Z,2.76
2023-03-12T18:29:19.042Z,2.67
2023-03-12T18:31:45.801Z,2.65
2023-03-12T18:34:12.555Z,2.75
2023-03-12T18:36:39.285Z,2.82
2023-03-12T18:39:06.594Z,2.86
2023-03-12T18:41:35.058Z,2.81
2023-03-12T18:44:02.741Z,2.86
2023-03-12T18:46:29.942Z,2.87
2023-03-12T18:48:57.155Z,2.87
2023-03-12T18:51:24.722Z,2.92
2023-03-12T18:53:52.053Z,2.93
2023-03-12T18:56:19.476Z,2.92
2023-03-12T18:58:46.509Z,2.91
2023-03-12T19:01:14.042Z,2.91
2023-03-12T19:03:41.048Z,2.95
2023-03-12T19:06:08.941Z,2.94
2023-03-12T19:08:37.432Z,2.98
2023-03-12T19:11:12.444Z,2.95
2023-03-12T19:13:39.430Z,2.93
2023-03-12T19:16:09.211Z,2.90
2023-03-12T19:18:38.130Z,2.86
2023-03-12T19:21:07.278Z,2.85
2023-03-12T19:23:34.127Z,2.89
2023-03-12T19:26:02.421Z,2.91
2023-03-12T19:28:31.297Z,2.95
2023-03-12T19:31:07.443Z,3.24
2023-03-12T19:33:34.709Z,2.86
2023-03-12T19:36:02.274Z,2.73
2023-03-12T19:38:29.126Z,2.77
2023-03-12T19:40:57.762Z,2.69
2023-03-12T19:43:25.518Z,2.73
2023-03-12T19:45:55.732Z,2.78
2023-03-12T19:48:22.919Z,2.83
2023-03-12T19:50:51.414Z,2.88
2023-03-12T19:53:19.817Z,2.93
2023-03-12T19:55:48.018Z,2.91
2023-03-12T19:58:15.794Z,2.88
2023-03-12T20:00:42.916Z,2.78
2023-03-12T20:03:09.810Z,2.77
2023-03-12T20:05:36.480Z,2.69
2023-03-12T20:08:03.152Z,2.69
2023-03-12T20:10:30.116Z,2.73
2023-03-12T20:12:56.803Z,2.75
2023-03-12T20:15:23.683Z,2.79
2023-03-12T20:17:50.864Z,2.80
2023-03-12T20:20:17.976Z,2.75
2023-03-12T20:22:44.615Z,2.79
2023-03-12T20:25:11.697Z,2.78
2023-03-12T20:27:38.714Z,2.83
2023-03-12T20:30:06.213Z,2.74
2023-03-12T20:32:33.288Z,2.85
2023-03-12T20:35:00.108Z,2.84
2023-03-12T20:37:26.812Z,2.93
2023-03-12T20:39:53.540Z,2.85
2023-03-12T20:42:20.161Z,2.91
2023-03-12T20:44:46.915Z,2.71
2023-03-12T20:47:13.630Z,3.12
2023-03-12T20:49:40.283Z,2.85
2023-03-12T20:52:07.193Z,2.74
2023-03-12T20:54:34.187Z,2.78
2023-03-12T20:57:00.909Z,2.74
2023-03-12T20:59:27.568Z,2.76
2023-03-12T21:01:54.258Z,2.74
2023-03-12T21:04:20.966Z,2.85
2023-03-12T21:06:47.802Z,2.88
2023-03-12T21:09:15.125Z,2.92
2023-03-12T21:11:42.042Z,2.86
2023-03-12T21:14:08.892Z,2.88
2023-03-12T21:16:36.658Z,2.95
2023-03-12T21:19:03.356Z,2.92
2023-03-12T21:21:30.642Z,2.89
2023-03-12T21:23:57.268Z,2.87
2023-03-12T21:26:23.912Z,2.93
2023-03-12T21:28:50.599Z,2.80
2023-03-12T21:31:18.600Z,2.73
2023-03-12T21:33:45.583Z,2.80
2023-03-12T21:36:14.315Z,2.77
2023-03-12T21:38:43.119Z,2.79
2023-03-12T21:41:14.806Z,2.84
2023-03-12T21:43:42.296Z,2.89
2023-03-12T21:46:19.896Z,2.92
2023-03-12T21:48:48.013Z,2.91
2023-03-12T21:51:17.195Z,2.88
2023-03-12T21:53:43.914Z,2.88
2023-03-12T21:56:10.785Z,2.91
2023-03-12T21:58:37.937Z,2.95
2023-03-12T22:01:09.703Z,2.87
2023-03-12T22:03:36.938Z,2.89
2023-03-12T22:06:04.162Z,2.87
2023-03-12T22:08:31.796Z,2.84
2023-03-12T22:10:58.572Z,2.87
2023-03-12T22:13:25.307Z,2.88
2023-03-12T22:16:00.304Z,2.93
2023-03-12T22:18:28.235Z,2.88
2023-03-12T22:20:56.658Z,2.96
2023-03-12T22:23:24.821Z,2.98
2023-03-12T22:25:51.437Z,3.07
2023-03-12T22:28:18.381Z,3.03
2023-03-12T22:30:46.420Z,2.95
2023-03-12T22:33:13.445Z,2.88
2023-03-12T22:35:45.932Z,2.95
2023-03-12T22:38:13.280Z,2.96
2023-03-12T22:40:40.348Z,2.96
2023-03-12T22:43:06.962Z,2.86
2023-03-12T22:45:33.909Z,2.86
2023-03-12T22:48:00.722Z,2.82
2023-03-12T22:50:27.666Z,2.78
2023-03-12T22:52:54.264Z,2.70
2023-03-12T22:55:20.890Z,2.78
2023-03-12T22:57:47.483Z,2.75
2023-03-12T23:00:16.576Z,2.70
2023-03-12T23:02:43.219Z,2.64
2023-03-12T23:05:10.440Z,2.48
2023-03-12T23:07:37.349Z,2.41
2023-03-12T23:10:04.511Z,2.38
2023-03-12T23:12:31.118Z,2.33
2023-03-12T23:14:57.708Z,2.43
2023-03-12T23:17:24.332Z,2.44
2023-03-12T23:19:50.970Z,2.42
2023-03-12T23:22:17.559Z,2.31
2023-03-12T23:24:44.175Z,2.24
2023-03-12T23:27:10.793Z,2.18
2023-03-12T23:29:37.466Z,2.18
2023-03-12T23:32:04.461Z,2.24
2023-03-12T23:34:31.110Z,2.12
2023-03-12T23:36:57.973Z,2.16
2023-03-12T23:39:24.600Z,2.12
2023-03-12T23:41:51.207Z,2.11
2023-03-12T23:44:17.926Z,2.10
2023-03-12T23:46:45.103Z,2.26
2023-03-12T23:49:12.519Z,2.04
2023-03-12T23:51:40.910Z,2.00
2023-03-12T23:54:07.572Z,1.90
2023-03-12T23:56:39.449Z,1.71
2023-03-12T23:59:08.078Z,1.71
